Wetterdaten: Woche 05.04.21 - 11.04.21 (KW14)
Datum Zeit Temp. Aussen Temp. o. S. Temp +5cm Feuchte Auss Luftdruck Regen Sonnenschein Regendauer Solar Windben Empfang
05.04.2021 00:00 4,7 C 3,9 C 2,3 C 85 % 1015,7 hPa 0,0 l/m 0,00 h 0,00 h 0 W/m 7,1 km/h (2 Bft) 97,86 %
05.04.2021 01:00 4,9 C 4,3 C 2,3 C 85 % 1014,4 hPa 0,0 l/m 0,00 h 0,00 h 0 W/m 11,4 km/h (2 Bft) 97,16 %
05.04.2021 02:00 5,3 C 4,7 C 2,7 C 85 % 1013,1 hPa 0,0 l/m 0,00 h 0,00 h 0 W/m 15,7 km/h (3 Bft) 99,43 %
05.04.2021 03:00 5,5 C 5,0 C 2,8 C 85 % 1011,7 hPa 0,0 l/m 0,00 h 0,00 h 0 W/m 17,5 km/h (3 Bft) 94,33 %
05.04.2021 04:00 5,7 C 5,0 C 3,3 C 85 % 1010,2 hPa 0,0 l/m 0,00 h 0,00 h 0 W/m 19,7 km/h (3 Bft) 94,94 %
05.04.2021 05:00 5,8 C 5,0 C 3,4 C 85 % 1009,3 hPa 0,0 l/m 0,00 h 0,00 h 0 W/m 17,3 km/h (3 Bft) 98,25 %
05.04.2021 06:00 5,8 C 5,0 C 3,4 C 87 % 1008,2 hPa 0,0 l/m 0,00 h 0,00 h 0 W/m 15,4 km/h (3 Bft) 97,98 %
05.04.2021 07:00 5,7 C 5,0 C 3,4 C 89 % 1007,5 hPa 0,0 l/m 0,00 h 0,00 h 5 W/m 19,3 km/h (3 Bft) 97,05 %
05.04.2021 08:00 5,7 C 5,3 C 3,6 C 90 % 1006,7 hPa 0,0 l/m 0,00 h 0,17 h 14 W/m 18,2 km/h (3 Bft) 94,58 %
05.04.2021 09:00 6,0 C 5,5 C 3,5 C 92 % 1006,5 hPa 0,8 l/m 0,00 h 0,70 h 24 W/m 20,6 km/h (4 Bft) 97,22 %
05.04.2021 10:00 4,9 C 4,4 C 2,6 C 93 % 1007,5 hPa 0,4 l/m 0,00 h 0,87 h 49 W/m 22,5 km/h (4 Bft) 97,87 %
05.04.2021 11:00 3,6 C 3,4 C 1,5 C 92 % 1008,8 hPa 0,2 l/m 0,00 h 0,80 h 98 W/m 38,2 km/h (5 Bft) 97,04 %
05.04.2021 12:00 3,9 C 4,3 C 2,4 C 87 % 1009,6 hPa 0,0 l/m 0,17 h 0,37 h 250 W/m 33,6 km/h (5 Bft) 99,48 %
05.04.2021 13:00 3,5 C 4,3 C 2,1 C 80 % 1010,6 hPa 0,0 l/m 0,43 h 0,43 h 317 W/m 35,5 km/h (5 Bft) 96,17 %
05.04.2021 14:00 3,4 C 5,2 C 1,4 C 79 % 1011,3 hPa 0,2 l/m 0,43 h 0,07 h 442 W/m 41,0 km/h (6 Bft) 95,96 %
05.04.2021 15:00 3,7 C 7,4 C 1,6 C 79 % 1011,7 hPa 0,0 l/m 0,70 h 0,00 h 555 W/m 29,0 km/h (5 Bft) 99,57 %
05.04.2021 16:00 4,8 C 8,4 C 2,5 C 67 % 1011,9 hPa 0,0 l/m 0,77 h 0,00 h 469 W/m 35,1 km/h (5 Bft) 97,08 %
05.04.2021 17:00 4,0 C 6,3 C 1,6 C 73 % 1012,5 hPa 0,0 l/m 0,67 h 0,00 h 290 W/m 25,8 km/h (4 Bft) 97,66 %
05.04.2021 18:00 4,1 C 6,5 C 2,1 C 75 % 1013,1 hPa 0,0 l/m 0,53 h 0,00 h 195 W/m 21,6 km/h (4 Bft) 97,53 %
05.04.2021 19:00 2,5 C 2,0 C -0,7 C 84 % 1013,6 hPa 0,0 l/m 0,07 h 0,13 h 25 W/m 19,2 km/h (3 Bft) 89,26 %
05.04.2021 20:00 1,7 C 1,3 C -1,1 C 88 % 1013,9 hPa 0,0 l/m 0,00 h 0,07 h 6 W/m 15,0 km/h (3 Bft) 94,92 %
05.04.2021 21:00 1,2 C 0,7 C -1,2 C 86 % 1014,2 hPa 0,0 l/m 0,00 h 0,00 h 0 W/m 10,6 km/h (2 Bft) 96,79 %
05.04.2021 22:00 0,8 C 0,3 C -1,4 C 88 % 1013,6 hPa 0,0 l/m 0,00 h 0,00 h 0 W/m 15,9 km/h (3 Bft) 98,28 %
05.04.2021 23:00 1,0 C 0,6 C -1,1 C 88 % 1013,1 hPa 0,0 l/m 0,00 h 0,03 h 0 W/m 17,6 km/h (3 Bft) 96,50 %
06.04.2021 00:00 0,6 C 0,1 C -1,8 C 93 % 1013,0 hPa 0,0 l/m 0,00 h 0,07 h 0 W/m 15,3 km/h (3 Bft) 99,42 %
06.04.2021 01:00 0,9 C 0,5 C -1,2 C 95 % 1012,8 hPa 0,0 l/m 0,00 h 0,43 h 0 W/m 17,5 km/h (3 Bft) 97,94 %
06.04.2021 02:00 1,3 C 0,8 C -0,5 C 95 % 1013,0 hPa 0,0 l/m 0,00 h 0,00 h 0 W/m 18,6 km/h (3 Bft) 95,78 %
06.04.2021 03:00 1,2 C 0,6 C -0,7 C 95 % 1013,2 hPa 0,0 l/m 0,00 h 0,47 h 0 W/m 15,7 km/h (3 Bft) 95,51 %
06.04.2021 04:00 0,9 C 0,5 C -0,7 C 95 % 1013,4 hPa 0,4 l/m 0,00 h 0,53 h 0 W/m 13,8 km/h (3 Bft) 97,10 %
06.04.2021 05:00 0,7 C 0,0 C -1,1 C 95 % 1013,2 hPa 0,0 l/m 0,00 h 0,00 h 0 W/m 12,8 km/h (3 Bft) 97,87 %
06.04.2021 06:00 0,5 C 0,0 C -1,0 C 95 % 1013,3 hPa 0,0 l/m 0,00 h 0,00 h 0 W/m 12,5 km/h (3 Bft) 97,31 %
06.04.2021 07:00 0,5 C 0,2 C -0,9 C 95 % 1013,6 hPa 0,0 l/m 0,13 h 0,10 h 25 W/m 10,6 km/h (2 Bft) 99,40 %
06.04.2021 08:00 0,8 C 0,8 C -0,3 C 95 % 1013,8 hPa 0,0 l/m 0,00 h 0,17 h 67 W/m 12,1 km/h (2 Bft) 97,70 %
06.04.2021 09:00 1,9 C 2,8 C 1,0 C 92 % 1013,7 hPa 0,8 l/m 0,53 h 0,17 h 251 W/m 17,0 km/h (3 Bft) 97,26 %
06.04.2021 10:00 2,9 C 3,9 C 2,3 C 87 % 1013,8 hPa 0,4 l/m 0,33 h 0,03 h 231 W/m 17,6 km/h (3 Bft) 95,95 %
06.04.2021 11:00 3,5 C 4,1 C 2,3 C 84 % 1013,5 hPa 0,4 l/m 0,17 h 0,00 h 223 W/m 15,2 km/h (3 Bft) 97,42 %
06.04.2021 12:00 3,9 C 4,8 C 3,6 C 82 % 1013,1 hPa 0,0 l/m 0,20 h 0,03 h 291 W/m 17,2 km/h (3 Bft) 97,79 %
06.04.2021 13:00 3,8 C 6,3 C 4,1 C 83 % 1012,8 hPa 0,0 l/m 0,67 h 0,00 h 567 W/m 19,9 km/h (4 Bft) 97,62 %
06.04.2021 14:00 2,8 C 4,2 C 0,9 C 88 % 1012,6 hPa 0,4 l/m 0,40 h 0,23 h 337 W/m 16,6 km/h (3 Bft) 95,73 %
06.04.2021 15:00 3,5 C 5,5 C 1,4 C 91 % 1012,1 hPa 0,4 l/m 0,63 h 0,10 h 422 W/m 20,4 km/h (4 Bft) 97,85 %
06.04.2021 16:00 3,9 C 5,6 C 1,8 C 84 % 1011,8 hPa 0,0 l/m 0,93 h 0,00 h 360 W/m 19,9 km/h (4 Bft) 98,72 %
06.04.2021 17:00 3,2 C 3,4 C 0,9 C 86 % 1011,8 hPa 0,2 l/m 0,37 h 0,13 h 155 W/m 19,6 km/h (3 Bft) 94,31 %
06.04.2021 18:00 3,1 C 3,4 C 0,9 C 86 % 1011,6 hPa 0,0 l/m 0,43 h 0,10 h 121 W/m 16,9 km/h (3 Bft) 98,62 %
06.04.2021 19:00 1,8 C 1,3 C -0,4 C 88 % 1011,8 hPa 0,0 l/m 0,20 h 0,33 h 31 W/m 17,0 km/h (3 Bft) 98,37 %
06.04.2021 20:00 1,2 C 0,7 C -0,8 C 91 % 1012,3 hPa 0,0 l/m 0,00 h 0,17 h 7 W/m 16,4 km/h (3 Bft) 96,65 %
06.04.2021 21:00 0,5 C 0,0 C -1,4 C 94 % 1012,8 hPa 0,0 l/m 0,00 h 0,00 h 0 W/m 8,9 km/h (2 Bft) 99,50 %
06.04.2021 22:00 0,3 C -0,1 C -1,3 C 95 % 1013,2 hPa 0,0 l/m 0,00 h 0,03 h 0 W/m 9,4 km/h (2 Bft) 97,94 %
06.04.2021 23:00 0,2 C -0,4 C -1,4 C 96 % 1013,4 hPa 0,0 l/m 0,00 h 0,00 h 0 W/m 7,8 km/h (2 Bft) 96,26 %
07.04.2021 00:00 -0,2 C -0,9 C -1,6 C 96 % 1013,9 hPa 0,0 l/m 0,00 h 0,00 h 0 W/m 7,3 km/h (2 Bft) 95,61 %
07.04.2021 01:00 -0,5 C -1,1 C -1,7 C 96 % 1014,2 hPa 0,0 l/m 0,00 h 0,00 h 0 W/m 9,2 km/h (2 Bft) 97,65 %
07.04.2021 02:00 -0,5 C -1,1 C -1,6 C 96 % 1014,4 hPa 0,0 l/m 0,00 h 0,00 h 0 W/m 7,7 km/h (2 Bft) 98,50 %
07.04.2021 03:00 -0,4 C -0,9 C -1,5 C 95 % 1014,6 hPa 0,0 l/m 0,00 h 0,00 h 0 W/m 10,5 km/h (2 Bft) 96,63 %
07.04.2021 04:00 -0,2 C -0,6 C -1,2 C 95 % 1014,6 hPa 0,0 l/m 0,00 h 0,00 h 0 W/m 10,5 km/h (2 Bft) 97,97 %
07.04.2021 05:00 0,0 C -0,5 C -1,0 C 95 % 1014,6 hPa 0,0 l/m 0,00 h 0,00 h 0 W/m 11,1 km/h (2 Bft) 97,70 %
07.04.2021 06:00 0,2 C -0,1 C -0,6 C 96 % 1014,5 hPa 0,0 l/m 0,00 h 0,03 h 0 W/m 12,2 km/h (2 Bft) 97,43 %
07.04.2021 07:00 0,3 C 0,0 C -0,8 C 96 % 1014,5 hPa 0,0 l/m 0,00 h 0,17 h 7 W/m 13,6 km/h (3 Bft) 97,16 %
07.04.2021 08:00 0,4 C 0,1 C -0,7 C 97 % 1014,2 hPa 0,0 l/m 0,00 h 0,20 h 19 W/m 17,5 km/h (3 Bft) 96,12 %
07.04.2021 09:00 0,5 C 0,2 C -0,4 C 97 % 1014,3 hPa 1,0 l/m 0,00 h 0,77 h 81 W/m 24,3 km/h (4 Bft) 96,10 %
07.04.2021 10:00 0,7 C 0,7 C 0,2 C 97 % 1014,8 hPa 0,8 l/m 0,00 h 0,93 h 134 W/m 20,2 km/h (4 Bft) 96,14 %
07.04.2021 11:00 1,4 C 1,5 C 0,9 C 97 % 1015,4 hPa 0,8 l/m 0,00 h 0,73 h 132 W/m 17,2 km/h (3 Bft) 99,65 %
07.04.2021 12:00 2,6 C 2,8 C 2,2 C 98 % 1016,1 hPa 0,2 l/m 0,00 h 0,67 h 192 W/m 16,9 km/h (3 Bft) 97,54 %
07.04.2021 13:00 5,2 C 6,2 C 5,1 C 96 % 1016,7 hPa 0,0 l/m 0,57 h 0,20 h 372 W/m 20,6 km/h (4 Bft) 96,94 %
07.04.2021 14:00 5,7 C 5,9 C 4,6 C 91 % 1017,3 hPa 0,0 l/m 0,07 h 0,13 h 253 W/m 20,1 km/h (4 Bft) 96,32 %
07.04.2021 15:00 5,0 C 5,0 C 3,5 C 90 % 1017,8 hPa 0,2 l/m 0,13 h 0,67 h 179 W/m 24,2 km/h (4 Bft) 97,29 %
07.04.2021 16:00 5,0 C 5,6 C 3,6 C 88 % 1018,7 hPa 0,0 l/m 0,50 h 0,33 h 283 W/m 33,4 km/h (5 Bft) 98,65 %
07.04.2021 17:00 3,8 C 3,5 C 2,2 C 90 % 1019,3 hPa 0,2 l/m 0,00 h 0,85 h 90 W/m 19,8 km/h (3 Bft) 96,99 %
07.04.2021 18:00 4,0 C 4,3 C 2,4 C 87 % 1019,8 hPa 0,0 l/m 0,40 h 0,20 h 134 W/m 21,2 km/h (4 Bft) 97,06 %
07.04.2021 19:00 3,5 C 2,9 C 1,8 C 86 % 1020,4 hPa 0,4 l/m 0,03 h 0,40 h 29 W/m 21,6 km/h (4 Bft) 94,41 %
07.04.2021 20:00 2,2 C 1,6 C 0,6 C 93 % 1020,9 hPa 0,2 l/m 0,00 h 0,43 h 0 W/m 15,3 km/h (3 Bft) 96,73 %
07.04.2021 21:00 2,6 C 2,2 C 1,1 C 91 % 1021,4 hPa 0,0 l/m 0,00 h 0,03 h 0 W/m 14,9 km/h (3 Bft) 98,01 %
07.04.2021 22:00 2,4 C 1,8 C 1,1 C 90 % 1021,9 hPa 0,0 l/m 0,00 h 0,03 h 0 W/m 12,9 km/h (3 Bft) 96,97 %
07.04.2021 23:00 2,2 C 1,6 C 0,9 C 91 % 1022,3 hPa 0,0 l/m 0,00 h 0,00 h 0 W/m 11,9 km/h (2 Bft) 97,62 %
08.04.2021 00:00 1,7 C 0,9 C 0,4 C 92 % 1022,7 hPa 0,0 l/m 0,00 h 0,00 h 0 W/m 9,1 km/h (2 Bft) 95,69 %
08.04.2021 01:00 1,4 C 1,0 C 0,3 C 93 % 1023,1 hPa 0,0 l/m 0,00 h 0,00 h 0 W/m 8,5 km/h (2 Bft) 99,79 %
08.04.2021 02:00 1,3 C 0,7 C 0,1 C 93 % 1023,3 hPa 0,0 l/m 0,00 h 0,00 h 0 W/m 6,9 km/h (2 Bft) 96,88 %
08.04.2021 03:00 1,1 C 0,6 C 0,0 C 93 % 1023,6 hPa 0,0 l/m 0,00 h 0,00 h 0 W/m 5,5 km/h (1 Bft) 96,21 %
08.04.2021 04:00 1,1 C 0,6 C 0,1 C 93 % 1023,7 hPa 0,0 l/m 0,00 h 0,00 h 0 W/m 5,8 km/h (2 Bft) 96,26 %
08.04.2021 05:00 1,3 C 0,6 C 0,6 C 92 % 1023,9 hPa 0,0 l/m 0,00 h 0,00 h 0 W/m 4,6 km/h (1 Bft) 97,21 %
08.04.2021 06:00 1,3 C 0,6 C 0,6 C 92 % 1024,1 hPa 0,0 l/m 0,00 h 0,00 h 1 W/m 2,6 km/h (1 Bft) 96,45 %
08.04.2021 07:00 1,3 C 1,0 C 0,8 C 92 % 1024,3 hPa 0,0 l/m 0,00 h 0,00 h 22 W/m 3,6 km/h (1 Bft) 94,99 %
08.04.2021 08:00 2,0 C 2,3 C 1,7 C 89 % 1024,6 hPa 0,0 l/m 0,00 h 0,00 h 91 W/m 6,5 km/h (2 Bft) 99,64 %
08.04.2021 09:00 3,2 C 3,9 C 3,1 C 84 % 1025,0 hPa 0,0 l/m 0,20 h 0,00 h 175 W/m 9,7 km/h (2 Bft) 97,67 %
08.04.2021 10:00 4,9 C 6,7 C 5,8 C 75 % 1025,2 hPa 0,0 l/m 0,90 h 0,00 h 314 W/m 12,7 km/h (3 Bft) 94,97 %
08.04.2021 11:00 6,4 C 8,6 C 7,7 C 63 % 1025,2 hPa 0,0 l/m 0,87 h 0,00 h 436 W/m 16,0 km/h (3 Bft) 97,16 %
08.04.2021 12:00 6,4 C 7,3 C 5,1 C 59 % 1024,9 hPa 0,0 l/m 0,07 h 0,00 h 315 W/m 15,5 km/h (3 Bft) 98,09 %
08.04.2021 13:00 7,1 C 8,7 C 6,4 C 56 % 1024,8 hPa 0,0 l/m 0,50 h 0,00 h 402 W/m 18,0 km/h (3 Bft) 98,65 %
08.04.2021 14:00 7,7 C 9,3 C 6,2 C 56 % 1024,4 hPa 0,0 l/m 0,73 h 0,00 h 398 W/m 18,2 km/h (3 Bft) 97,01 %
08.04.2021 15:00 8,5 C 10,9 C 6,4 C 54 % 1023,8 hPa 0,0 l/m 0,87 h 0,00 h 481 W/m 20,6 km/h (4 Bft) 97,85 %
08.04.2021 16:00 9,3 C 13,9 C 6,9 C 53 % 1023,2 hPa 0,0 l/m 0,90 h 0,00 h 555 W/m 19,6 km/h (3 Bft) 96,31 %
08.04.2021 17:00 9,1 C 12,7 C 6,7 C 54 % 1022,5 hPa 0,0 l/m 1,00 h 0,00 h 376 W/m 18,8 km/h (3 Bft) 97,85 %
08.04.2021 18:00 8,7 C 11,1 C 6,0 C 55 % 1022,0 hPa 0,0 l/m 0,83 h 0,00 h 188 W/m 17,5 km/h (3 Bft) 98,97 %
08.04.2021 19:00 8,0 C 7,5 C 4,8 C 57 % 1021,6 hPa 0,0 l/m 0,10 h 0,00 h 47 W/m 14,9 km/h (3 Bft) 94,08 %
08.04.2021 20:00 7,1 C 6,0 C 3,5 C 61 % 1021,0 hPa 0,0 l/m 0,00 h 0,00 h 9 W/m 4,4 km/h (1 Bft) 98,44 %
08.04.2021 21:00 6,0 C 4,7 C 2,4 C 66 % 1020,7 hPa 0,0 l/m 0,00 h 0,00 h 0 W/m 2,8 km/h (1 Bft) 98,51 %
08.04.2021 22:00 5,2 C 4,2 C 1,8 C 70 % 1020,4 hPa 0,0 l/m 0,00 h 0,00 h 0 W/m 3,3 km/h (1 Bft) 97,87 %
08.04.2021 23:00 4,3 C 3,3 C 1,1 C 74 % 1019,8 hPa 0,0 l/m 0,00 h 0,00 h 0 W/m 4,6 km/h (1 Bft) 94,10 %
09.04.2021 00:00 3,9 C 3,3 C 1,1 C 75 % 1019,1 hPa 0,0 l/m 0,00 h 0,00 h 0 W/m 6,3 km/h (2 Bft) 95,52 %
09.04.2021 01:00 3,6 C 2,9 C 0,8 C 77 % 1018,5 hPa 0,0 l/m 0,00 h 0,00 h 0 W/m 9,2 km/h (2 Bft) 97,59 %
09.04.2021 02:00 3,4 C 2,8 C 0,6 C 78 % 1017,9 hPa 0,0 l/m 0,00 h 0,00 h 0 W/m 7,3 km/h (2 Bft) 98,35 %
09.04.2021 03:00 3,0 C 2,2 C 0,1 C 80 % 1017,3 hPa 0,0 l/m 0,00 h 0,00 h 0 W/m 5,9 km/h (2 Bft) 95,60 %
09.04.2021 04:00 2,8 C 2,2 C 0,0 C 81 % 1016,7 hPa 0,0 l/m 0,00 h 0,00 h 0 W/m 8,5 km/h (2 Bft) 99,79 %
09.04.2021 05:00 2,5 C 1,7 C 0,0 C 83 % 1016,1 hPa 0,0 l/m 0,00 h 0,00 h 0 W/m 6,5 km/h (2 Bft) 95,30 %
09.04.2021 06:00 2,3 C 1,7 C -0,4 C 84 % 1015,7 hPa 0,0 l/m 0,00 h 0,00 h 0 W/m 6,3 km/h (2 Bft) 95,39 %
09.04.2021 07:00 2,3 C 2,1 C -0,0 C 85 % 1015,6 hPa 0,0 l/m 0,00 h 0,00 h 33 W/m 6,6 km/h (2 Bft) 96,20 %
09.04.2021 08:00 3,4 C 3,9 C 1,5 C 84 % 1015,4 hPa 0,0 l/m 0,00 h 0,00 h 105 W/m 8,5 km/h (2 Bft) 98,45 %
09.04.2021 09:00 6,6 C 9,4 C 5,5 C 75 % 1015,2 hPa 0,0 l/m 1,00 h 0,00 h 317 W/m 10,5 km/h (2 Bft) 95,66 %
09.04.2021 10:00 9,6 C 12,2 C 9,8 C 66 % 1015,1 hPa 0,0 l/m 1,00 h 0,00 h 363 W/m 12,8 km/h (3 Bft) 98,72 %
09.04.2021 11:00 10,9 C 13,1 C 11,9 C 63 % 1015,0 hPa 0,0 l/m 0,97 h 0,00 h 497 W/m 15,2 km/h (3 Bft) 96,73 %
09.04.2021 12:00 11,8 C 13,2 C 11,5 C 62 % 1014,8 hPa 0,0 l/m 0,67 h 0,00 h 389 W/m 14,7 km/h (3 Bft) 96,10 %
09.04.2021 13:00 12,7 C 14,3 C 11,7 C 61 % 1014,3 hPa 0,0 l/m 0,53 h 0,00 h 386 W/m 15,3 km/h (3 Bft) 96,85 %
09.04.2021 14:00 12,9 C 14,0 C 10,6 C 60 % 1014,1 hPa 0,0 l/m 0,20 h 0,00 h 337 W/m 17,3 km/h (3 Bft) 98,93 %
09.04.2021 15:00 13,3 C 14,8 C 10,7 C 58 % 1013,6 hPa 0,0 l/m 0,50 h 0,00 h 390 W/m 17,3 km/h (3 Bft) 98,23 %
09.04.2021 16:00 13,7 C 14,8 C 10,9 C 57 % 1013,3 hPa 0,0 l/m 0,30 h 0,00 h 289 W/m 14,0 km/h (3 Bft) 95,06 %
09.04.2021 17:00 14,1 C 17,1 C 11,2 C 57 % 1013,0 hPa 0,0 l/m 0,87 h 0,00 h 330 W/m 14,0 km/h (3 Bft) 99,24 %
09.04.2021 18:00 13,2 C 12,8 C 9,9 C 60 % 1012,8 hPa 0,0 l/m 0,00 h 0,00 h 102 W/m 8,0 km/h (2 Bft) 96,99 %
09.04.2021 19:00 12,4 C 11,6 C 8,7 C 63 % 1012,6 hPa 0,0 l/m 0,00 h 0,00 h 36 W/m 3,0 km/h (1 Bft) 96,79 %
09.04.2021 20:00 11,3 C 9,0 C 6,3 C 69 % 1012,5 hPa 0,0 l/m 0,00 h 0,00 h 8 W/m 0,0 km/h (0 Bft) 97,47 %
09.04.2021 21:00 9,9 C 8,2 C 5,6 C 73 % 1012,6 hPa 0,0 l/m 0,00 h 0,00 h 0 W/m 0,0 km/h (0 Bft) 98,08 %
09.04.2021 22:00 9,0 C 7,9 C 5,1 C 76 % 1012,7 hPa 0,0 l/m 0,00 h 0,00 h 0 W/m 0,1 km/h (0 Bft) 95,08 %
09.04.2021 23:00 8,9 C 8,2 C 5,4 C 77 % 1012,7 hPa 0,0 l/m 0,00 h 0,67 h 0 W/m 3,3 km/h (1 Bft) 96,30 %
10.04.2021 00:00 8,7 C 7,4 C 4,7 C 83 % 1012,3 hPa 0,4 l/m 0,00 h 0,93 h 0 W/m 0,6 km/h (0 Bft) 98,78 %
10.04.2021 01:00 8,2 C 7,2 C 4,5 C 88 % 1012,0 hPa 0,2 l/m 0,00 h 0,73 h 0 W/m 1,7 km/h (1 Bft) 95,38 %
10.04.2021 02:00 8,0 C 7,2 C 4,8 C 89 % 1012,1 hPa 0,2 l/m 0,00 h 0,87 h 0 W/m 0,9 km/h (0 Bft) 97,94 %
10.04.2021 03:00 7,9 C 7,0 C 4,7 C 92 % 1012,0 hPa 0,0 l/m 0,00 h 0,20 h 0 W/m 0,0 km/h (0 Bft) 99,43 %
10.04.2021 04:00 7,6 C 6,7 C 4,7 C 93 % 1012,0 hPa 0,0 l/m 0,00 h 0,00 h 0 W/m 0,0 km/h (0 Bft) 96,43 %
10.04.2021 05:00 7,4 C 6,7 C 4,5 C 94 % 1012,2 hPa 0,0 l/m 0,00 h 0,00 h 0 W/m 0,0 km/h (0 Bft) 95,87 %
10.04.2021 06:00 6,9 C 6,0 C 4,3 C 94 % 1012,5 hPa 0,0 l/m 0,00 h 0,00 h 0 W/m 0,9 km/h (0 Bft) 97,71 %
10.04.2021 07:00 6,4 C 5,9 C 4,3 C 94 % 1012,9 hPa 0,0 l/m 0,00 h 0,00 h 22 W/m 1,6 km/h (1 Bft) 99,57 %
10.04.2021 08:00 6,9 C 7,3 C 5,4 C 95 % 1013,3 hPa 0,0 l/m 0,00 h 0,00 h 83 W/m 1,1 km/h (0 Bft) 96,22 %
10.04.2021 09:00 8,0 C 9,1 C 7,0 C 95 % 1013,6 hPa 0,0 l/m 0,00 h 0,00 h 165 W/m 3,8 km/h (1 Bft) 99,07 %
10.04.2021 10:00 9,1 C 10,5 C 8,2 C 93 % 1013,8 hPa 0,0 l/m 0,37 h 0,07 h 247 W/m 4,7 km/h (1 Bft) 96,76 %
10.04.2021 11:00 9,8 C 10,3 C 8,1 C 91 % 1013,9 hPa 0,0 l/m 0,13 h 0,33 h 174 W/m 7,4 km/h (2 Bft) 94,30 %
10.04.2021 12:00 9,6 C 9,9 C 7,5 C 94 % 1013,7 hPa 0,6 l/m 0,00 h 1,00 h 172 W/m 6,6 km/h (2 Bft) 98,21 %
10.04.2021 13:00 9,5 C 9,7 C 7,5 C 96 % 1013,1 hPa 0,8 l/m 0,00 h 1,00 h 173 W/m 7,0 km/h (2 Bft) 98,79 %
10.04.2021 14:00 9,6 C 9,7 C 7,6 C 97 % 1012,4 hPa 0,2 l/m 0,00 h 0,70 h 133 W/m 8,0 km/h (2 Bft) 95,61 %
10.04.2021 15:00 9,2 C 8,8 C 7,2 C 97 % 1011,8 hPa 1,8 l/m 0,00 h 1,00 h 68 W/m 7,2 km/h (2 Bft) 98,49 %
10.04.2021 16:00 9,2 C 8,6 C 7,2 C 97 % 1011,0 hPa 1,4 l/m 0,00 h 1,00 h 70 W/m 6,1 km/h (2 Bft) 94,81 %
10.04.2021 17:00 9,0 C 8,2 C 7,2 C 98 % 1009,7 hPa 0,8 l/m 0,00 h 0,77 h 23 W/m 8,4 km/h (2 Bft) 96,79 %
10.04.2021 18:00 9,0 C 8,2 C 7,3 C 98 % 1008,7 hPa 0,8 l/m 0,00 h 0,70 h 10 W/m 10,7 km/h (2 Bft) 98,11 %
10.04.2021 19:00 9,3 C 8,4 C 7,7 C 99 % 1008,3 hPa 1,4 l/m 0,00 h 1,00 h 4 W/m 5,1 km/h (1 Bft) 98,43 %
10.04.2021 20:00 9,4 C 8,4 C 7,8 C 99 % 1007,9 hPa 0,4 l/m 0,00 h 0,40 h 0 W/m 5,2 km/h (1 Bft) 97,79 %
10.04.2021 21:00 9,5 C 8,9 C 7,8 C 99 % 1007,7 hPa 0,2 l/m 0,00 h 0,17 h 0 W/m 5,5 km/h (1 Bft) 97,88 %
10.04.2021 22:00 9,6 C 8,9 C 7,8 C 99 % 1007,3 hPa 0,0 l/m 0,00 h 0,00 h 0 W/m 11,6 km/h (2 Bft) 97,15 %
10.04.2021 23:00 9,7 C 9,1 C 8,1 C 98 % 1007,3 hPa 0,4 l/m 0,00 h 0,60 h 0 W/m 11,6 km/h (2 Bft) 95,24 %
11.04.2021 00:00 9,8 C 8,9 C 8,4 C 98 % 1007,3 hPa 0,2 l/m 0,00 h 0,80 h 0 W/m 5,7 km/h (1 Bft) 97,44 %
11.04.2021 01:00 9,5 C 8,7 C 7,9 C 98 % 1007,0 hPa 0,8 l/m 0,00 h 0,87 h 0 W/m 7,5 km/h (2 Bft) 97,75 %
11.04.2021 02:00 9,4 C 8,6 C 7,9 C 98 % 1006,6 hPa 0,0 l/m 0,00 h 0,10 h 0 W/m 5,3 km/h (1 Bft) 96,44 %
11.04.2021 03:00 8,3 C 7,2 C 7,0 C 98 % 1006,6 hPa 0,6 l/m 0,00 h 0,63 h 0 W/m 9,3 km/h (2 Bft) 98,72 %
11.04.2021 04:00 6,3 C 5,5 C 5,3 C 98 % 1007,0 hPa 1,2 l/m 0,00 h 0,87 h 0 W/m 12,1 km/h (2 Bft) 98,21 %
11.04.2021 05:00 4,9 C 4,2 C 4,2 C 98 % 1007,7 hPa 1,6 l/m 0,00 h 0,97 h 0 W/m 15,1 km/h (3 Bft) 95,59 %
11.04.2021 06:00 4,1 C 3,5 C 3,5 C 98 % 1008,2 hPa 0,0 l/m 0,00 h 0,10 h 0 W/m 16,5 km/h (3 Bft) 96,57 %
11.04.2021 07:00 3,7 C 3,3 C 3,4 C 98 % 1009,1 hPa 0,2 l/m 0,00 h 0,47 h 14 W/m 13,6 km/h (3 Bft) 97,01 %
11.04.2021 08:00 3,5 C 3,3 C 3,4 C 99 % 1010,0 hPa 0,4 l/m 0,00 h 1,00 h 34 W/m 12,9 km/h (3 Bft) 95,03 %
11.04.2021 09:00 3,6 C 3,3 C 3,4 C 99 % 1010,5 hPa 0,2 l/m 0,00 h 0,63 h 42 W/m 15,2 km/h (3 Bft) 96,91 %
11.04.2021 10:00 3,8 C 3,7 C 3,6 C 99 % 1011,3 hPa 0,4 l/m 0,00 h 1,00 h 62 W/m 16,3 km/h (3 Bft) 97,59 %
11.04.2021 11:00 3,9 C 4,1 C 3,7 C 98 % 1012,1 hPa 0,0 l/m 0,00 h 0,93 h 90 W/m 15,9 km/h (3 Bft) 98,01 %
11.04.2021 12:00 4,2 C 4,2 C 3,9 C 98 % 1012,9 hPa 0,6 l/m 0,00 h 1,00 h 90 W/m 14,7 km/h (3 Bft) 97,77 %
11.04.2021 13:00 4,6 C 4,7 C 4,4 C 97 % 1013,5 hPa 0,2 l/m 0,00 h 1,00 h 129 W/m 13,1 km/h (3 Bft) 97,72 %
11.04.2021 14:00 5,3 C 6,3 C 5,1 C 95 % 1014,0 hPa 0,0 l/m 0,03 h 0,20 h 261 W/m 16,8 km/h (3 Bft) 98,77 %
11.04.2021 15:00 6,0 C 6,1 C 5,0 C 89 % 1014,6 hPa 0,0 l/m 0,00 h 0,00 h 143 W/m 18,5 km/h (3 Bft) 97,56 %
11.04.2021 16:00 6,2 C 6,5 C 5,2 C 86 % 1015,2 hPa 0,0 l/m 0,00 h 0,00 h 191 W/m 20,3 km/h (4 Bft) 97,93 %
11.04.2021 17:00 6,3 C 6,4 C 5,6 C 84 % 1015,7 hPa 0,0 l/m 0,00 h 0,00 h 136 W/m 19,5 km/h (3 Bft) 98,00 %
11.04.2021 18:00 6,3 C 6,5 C 5,4 C 84 % 1016,4 hPa 0,2 l/m 0,00 h 0,00 h 98 W/m 14,2 km/h (3 Bft) 94,99 %
11.04.2021 19:00 6,1 C 6,0 C 5,0 C 85 % 1017,2 hPa 0,0 l/m 0,40 h 0,00 h 53 W/m 12,5 km/h (3 Bft) 97,09 %
11.04.2021 20:00 6,0 C 5,3 C 4,5 C 83 % 1018,2 hPa 0,0 l/m 0,07 h 0,00 h 10 W/m 11,1 km/h (2 Bft) 99,29 %
11.04.2021 21:00 5,0 C 3,8 C 3,1 C 82 % 1019,1 hPa 0,0 l/m 0,00 h 0,00 h 0 W/m 7,6 km/h (2 Bft) 96,84 %
11.04.2021 22:00 4,0 C 2,7 C 2,0 C 84 % 1019,8 hPa 0,0 l/m 0,00 h 0,00 h 0 W/m 5,2 km/h (1 Bft) 96,99 %
11.04.2021 23:00 3,1 C 2,2 C 1,5 C 85 % 1020,7 hPa 0,0 l/m 0,00 h 0,00 h 0 W/m 3,3 km/h (1 Bft) 97,36 %
Min-Datum _ 07.04.21 07.04.21 06.04.21 08.04.21 05.04.21 - - - - 08.04.21 08.04.21
_ Min-Zeit 01:10 00:28 14:32 15:48 09:20 - - - - 05:54 06:02
Minimum _ -0,5 C -1,1 C -2,7 C 51 % 1006,1 hPa - - - - 0,0 km/h (0 Bft) 33,33 %
Max-Datum _ 09.04.21 09.04.21 09.04.21 10.04.21 08.04.21 10.04.21 05.04.21 07.04.21 06.04.21 05.04.21 05.04.21
_ Max-Zeit 17:48 17:46 11:58 18:54 10:26 15:02 18:08 17:56 14:08 13:58 00:00
Maximum _ 14,3 C 18,9 C 16,7 C 99 % 1025,3 hPa 1,8 l/m 0,07 h 0,08 h 991 W/m 64,4 km/h
NW (8 Bft)
100,00 %
Durchschnitt _ 5,0 C 5,0 C 3,3 C 86 % 1014,7 hPa #24,6 l/m #24:28 h #36:21 h 184 W/m 12,9 km/h (3 Bft) 97,15 %
© 2021 W. Hausmann